Time;durP1;ratioP1;P1;durP2;ratioP2;P2;SDS_P1;SDS_P2;PMS_P1;PMS_P2;Temp;Humidity;BMP_temperature;BMP_pressure;BME280_temperature;BME280_humidity;BME280_pressure;Samples;Min_cycle;Max_cycle;Signal;HPM_P1;HPM_P2
2022/05/08 00:01:12;;;;;;;37.47;22.58;;;;;;;12.90;99.70;102252.38;5048442;28;20036;-75
2022/05/08 00:03:37;;;;;;;36.30;21.65;;;;;;;12.93;99.68;102246.91;5048188;28;20036;-77
2022/05/08 00:06:10;;;;;;;43.78;24.83;;;;;;;12.96;99.77;102244.84;5046683;28;20036;-76
2022/05/08 00:08:35;;;;;;;31.80;21.05;;;;;;;12.89;99.89;102248.94;5046979;28;20504;-75
2022/05/08 00:11:03;;;;;;;34.75;22.40;;;;;;;12.87;100.00;102250.06;5045308;28;20024;-76
2022/05/08 00:13:30;;;;;;;32.30;21.58;;;;;;;12.83;100.00;102247.72;5045865;28;20512;-77
2022/05/08 00:15:56;;;;;;;38.13;23.50;;;;;;;12.94;99.70;102246.78;5045675;28;20057;-76
2022/05/08 00:18:23;;;;;;;34.88;22.20;;;;;;;12.90;99.34;102255.78;5046790;28;20043;-75
2022/05/08 00:20:48;;;;;;;38.55;23.70;;;;;;;12.91;99.32;102251.41;5046751;28;20074;-76
2022/05/08 00:23:14;;;;;;;35.75;22.05;;;;;;;12.85;99.29;102243.19;5049212;28;20657;-76
2022/05/08 00:25:41;;;;;;;34.47;21.58;;;;;;;12.82;99.54;102246.06;5047757;28;20025;-76
2022/05/08 00:28:08;;;;;;;34.00;22.17;;;;;;;12.78;99.71;102251.69;5048549;28;20037;-76
2022/05/08 00:30:33;;;;;;;31.55;20.85;;;;;;;12.78;99.61;102244.69;5046891;28;20025;-76
2022/05/08 00:32:59;;;;;;;39.35;22.40;;;;;;;12.81;99.41;102248.81;5048156;28;20070;-76
2022/05/08 00:35:25;;;;;;;33.08;20.88;;;;;;;12.82;99.10;102253.03;5043923;28;20485;-75
2022/05/08 00:37:50;;;;;;;38.22;21.08;;;;;;;12.78;98.77;102254.28;5047494;28;20039;-76
2022/05/08 00:40:15;;;;;;;36.33;21.85;;;;;;;12.75;98.91;102259.75;5046827;28;20481;-76
2022/05/08 00:42:42;;;;;;;30.70;17.15;;;;;;;12.68;94.88;102253.44;5045280;28;20040;-76
2022/05/08 00:45:08;;;;;;;27.67;15.88;;;;;;;12.69;93.30;102249.88;5045476;28;20111;-75
2022/05/08 00:47:35;;;;;;;26.05;13.35;;;;;;;12.68;89.95;102240.41;5045051;28;20119;-76
2022/05/08 00:50:01;;;;;;;26.48;14.48;;;;;;;12.58;89.48;102249.06;5028557;28;20033;-76
2022/05/08 00:52:27;;;;;;;22.23;11.35;;;;;;;12.62;87.42;102247.81;5044460;28;20094;-75
2022/05/08 00:54:53;;;;;;;19.05;10.65;;;;;;;12.58;86.80;102246.44;5045784;28;20519;-76
2022/05/08 00:57:20;;;;;;;16.35;9.38;;;;;;;12.43;86.96;102248.59;5044385;28;20829;-76
2022/05/08 00:59:48;;;;;;;18.13;8.68;;;;;;;12.45;85.74;102256.25;5046545;28;20179;-76
2022/05/08 01:02:14;;;;;;;15.25;9.27;;;;;;;12.35;85.84;102258.00;5044927;28;20580;-76
2022/05/08 01:04:39;;;;;;;16.25;9.15;;;;;;;12.26;85.97;102257.00;5029663;28;20021;-75
2022/05/08 01:07:05;;;;;;;15.45;7.78;;;;;;;12.23;86.99;102258.09;5044796;28;20032;-76
2022/05/08 01:09:30;;;;;;;12.35;6.35;;;;;;;12.18;86.65;102262.06;5030370;28;20458;-77
2022/05/08 01:11:57;;;;;;;18.40;6.07;;;;;;;12.17;83.98;102257.81;5030293;28;20199;-76
2022/05/08 01:14:22;;;;;;;13.15;5.57;;;;;;;12.08;84.53;102262.03;5029739;28;20029;-77
2022/05/08 01:16:49;;;;;;;12.57;4.63;;;;;;;12.08;82.94;102265.44;5046807;28;20396;-78
2022/05/08 01:19:15;;;;;;;8.43;4.35;;;;;;;12.10;83.42;102267.09;5044789;28;20033;-77
2022/05/08 01:21:42;;;;;;;13.73;4.65;;;;;;;12.09;82.67;102266.25;5047532;28;20021;-77
2022/05/08 01:24:09;;;;;;;11.80;5.07;;;;;;;12.08;83.22;102273.25;5061176;28;20028;-78
2022/05/08 01:26:35;;;;;;;10.13;4.38;;;;;;;12.00;83.92;102270.47;5048920;28;20385;-77
2022/05/08 01:29:01;;;;;;;13.88;4.30;;;;;;;12.10;83.60;102267.91;5045622;28;20029;-78
2022/05/08 01:31:27;;;;;;;10.63;4.00;;;;;;;12.09;84.15;102268.84;5051550;28;20567;-77
2022/05/08 01:33:52;;;;;;;10.20;4.15;;;;;;;12.04;84.53;102265.84;5062510;28;20040;-77
2022/05/08 01:36:18;;;;;;;12.30;4.10;;;;;;;12.02;84.63;102271.16;5033621;28;20110;-77
2022/05/08 01:38:43;;;;;;;12.15;4.30;;;;;;;12.03;85.61;102272.78;5050649;28;20029;-77
2022/05/08 01:41:09;;;;;;;15.40;5.18;;;;;;;11.98;85.66;102266.34;5048208;28;20034;-78
2022/05/08 01:43:36;;;;;;;11.48;4.80;;;;;;;12.02;84.71;102272.94;5052274;28;20029;-78
2022/05/08 01:46:05;;;;;;;13.48;4.78;;;;;;;12.07;83.98;102269.00;5055785;28;20039;-76
2022/05/08 01:48:32;;;;;;;18.20;5.93;;;;;;;11.95;85.41;102272.63;5036992;28;20545;-77
2022/05/08 01:50:59;;;;;;;7.13;4.65;;;;;;;11.95;84.58;102271.81;5052417;28;20047;-76
2022/05/08 01:53:27;;;;;;;16.15;5.90;;;;;;;11.91;84.86;102273.84;5051685;28;20036;-78
2022/05/08 01:55:56;;;;;;;14.23;5.10;;;;;;;11.99;83.60;102275.78;5050605;28;20037;-77
2022/05/08 01:58:26;;;;;;;9.77;4.55;;;;;;;12.03;83.96;102274.56;5068662;28;20039;-78
2022/05/08 02:00:53;;;;;;;13.10;5.65;;;;;;;12.12;84.26;102275.59;5051197;28;20043;-76
2022/05/08 02:03:20;;;;;;;18.45;6.30;;;;;;;12.01;84.37;102276.50;5055845;28;20588;-78
2022/05/08 02:05:46;;;;;;;12.18;5.60;;;;;;;12.07;83.77;102275.97;5050033;28;20037;-78
2022/05/08 02:08:12;;;;;;;15.90;5.55;;;;;;;12.05;83.34;102281.31;5053678;28;20479;-78
2022/05/08 02:10:41;;;;;;;12.43;5.57;;;;;;;12.00;84.43;102280.06;5049797;28;20077;-78
2022/05/08 02:13:08;;;;;;;15.57;5.50;;;;;;;11.95;85.29;102277.81;5054280;28;20021;-77
2022/05/08 02:15:34;;;;;;;15.38;5.40;;;;;;;11.96;85.72;102276.88;5036171;28;20057;-78
2022/05/08 02:18:03;;;;;;;12.43;5.72;;;;;;;11.95;84.43;102282.22;5047968;28;20497;-78
2022/05/08 02:20:30;;;;;;;15.38;6.20;;;;;;;11.94;84.99;102281.41;5032425;28;20032;-78
2022/05/08 02:22:57;;;;;;;9.80;5.63;;;;;;;11.94;85.31;102280.56;5050168;28;20037;-77
2022/05/08 02:25:23;;;;;;;11.52;5.82;;;;;;;11.97;85.38;102285.50;5033543;28;20124;-78
2022/05/08 02:27:49;;;;;;;15.25;6.13;;;;;;;11.95;85.57;102283.03;5031706;28;20532;-78
2022/05/08 02:30:16;;;;;;;14.73;6.20;;;;;;;11.96;85.23;102284.69;5031601;28;20186;-78
2022/05/08 02:32:42;;;;;;;14.07;5.68;;;;;;;11.94;86.16;102277.94;5048890;28;20171;-79
2022/05/08 02:35:12;;;;;;;15.40;6.65;;;;;;;11.93;86.85;102284.94;5029020;28;20036;-79
2022/05/08 02:37:39;;;;;;;12.40;6.03;;;;;;;11.94;86.48;102285.75;5048240;28;20033;-78
2022/05/08 02:40:14;;;;;;;12.38;6.03;;;;;;;11.94;86.43;102284.00;5050102;28;21044;-78
2022/05/08 02:42:40;;;;;;;13.30;5.55;;;;;;;11.97;86.63;102278.53;5063995;28;20069;-79
2022/05/08 02:45:08;;;;;;;14.68;6.35;;;;;;;11.93;86.79;102282.34;5043230;28;20652;-79
2022/05/08 02:47:34;;;;;;;11.07;6.07;;;;;;;11.92;87.80;102280.66;5044152;28;20075;-80
2022/05/08 02:50:00;;;;;;;12.50;5.72;;;;;;;11.93;86.09;102287.53;5043415;28;20033;-78
2022/05/08 02:52:26;;;;;;;12.20;5.93;;;;;;;11.88;85.87;102292.25;5046296;28;20573;-78
2022/05/08 02:54:51;;;;;;;13.85;7.00;;;;;;;11.89;85.95;102288.72;5045388;28;20035;-79
2022/05/08 03:00:06;;;;;;;14.52;6.60;;;;;;;11.80;87.08;102295.50;5044399;28;20116;-78
2022/05/08 03:02:33;;;;;;;12.10;5.45;;;;;;;11.79;87.43;102291.25;5042967;28;20041;-78
2022/05/08 03:04:59;;;;;;;14.73;6.18;;;;;;;11.78;87.49;102288.78;5041404;28;20048;-78
2022/05/08 03:07:27;;;;;;;15.35;6.70;;;;;;;11.78;87.46;102293.97;5044945;28;20033;-77
2022/05/08 03:09:52;;;;;;;19.13;7.45;;;;;;;11.77;87.50;102294.91;5059358;28;20052;-79
2022/05/08 03:12:18;;;;;;;10.63;5.93;;;;;;;11.76;87.80;102295.88;5042318;28;20036;-78
2022/05/08 03:14:43;;;;;;;14.07;7.45;;;;;;;11.76;88.45;102306.28;5027458;28;20504;-79
2022/05/08 03:17:09;;;;;;;14.82;7.60;;;;;;;11.82;88.42;102300.56;5042346;28;20032;-79
2022/05/08 03:19:34;;;;;;;13.60;7.03;;;;;;;11.72;88.51;102300.50;5045642;28;20498;-79
2022/05/08 03:22:00;;;;;;;14.10;7.05;;;;;;;11.71;88.76;102303.22;5048132;28;20025;-78
2022/05/08 03:24:28;;;;;;;19.45;8.25;;;;;;;11.75;88.39;102307.22;5046866;28;20048;-79
2022/05/08 03:26:53;;;;;;;20.50;9.07;;;;;;;11.63;88.63;102309.88;5048602;28;20041;-79
2022/05/08 03:29:19;;;;;;;14.65;8.65;;;;;;;11.61;88.91;102318.75;5046731;28;20029;-79
2022/05/08 03:31:44;;;;;;;16.55;8.95;;;;;;;11.69;89.04;102313.75;5045925;28;20363;-79
2022/05/08 03:34:10;;;;;;;16.77;8.85;;;;;;;11.74;89.04;102311.59;5047417;28;20029;-79
2022/05/08 03:36:35;;;;;;;18.75;10.13;;;;;;;11.68;88.39;102315.53;5047208;28;20037;-79
2022/05/08 03:39:00;;;;;;;16.48;9.15;;;;;;;11.63;88.71;102311.66;5027381;28;20037;-78
2022/05/08 03:41:26;;;;;;;27.42;12.07;;;;;;;11.59;89.00;102313.69;5048228;28;20072;-78
2022/05/08 03:43:51;;;;;;;22.05;10.68;;;;;;;11.63;89.07;102312.47;5046949;28;20071;-79
2022/05/08 03:46:17;;;;;;;20.05;11.45;;;;;;;11.45;89.93;102322.63;5028488;28;20049;-79
2022/05/08 03:48:43;;;;;;;24.45;12.15;;;;;;;11.48;89.61;102317.16;5046667;28;20037;-76
2022/05/08 03:51:09;;;;;;;22.42;11.65;;;;;;;11.55;89.77;102319.28;5047520;28;20166;-78
2022/05/08 03:53:36;;;;;;;26.27;12.60;;;;;;;11.43;89.64;102315.88;5044881;28;20025;-79
2022/05/08 03:56:03;;;;;;;21.38;11.10;;;;;;;11.38;90.40;102321.47;5046268;28;20025;-77
2022/05/08 03:58:28;;;;;;;26.17;13.77;;;;;;;11.40;90.42;102316.97;5045967;28;20052;-79
2022/05/08 04:00:54;;;;;;;23.20;13.88;;;;;;;11.29;90.10;102320.41;5045148;28;20033;-79
2022/05/08 04:03:19;;;;;;;19.50;12.80;;;;;;;11.34;90.11;102320.06;5046649;28;20033;-78
2022/05/08 04:05:45;;;;;;;25.75;12.35;;;;;;;11.31;90.23;102320.28;5045724;28;20428;-79
2022/05/08 04:08:10;;;;;;;30.17;13.38;;;;;;;11.33;90.62;102321.00;5042812;28;20032;-79
2022/05/08 04:10:36;;;;;;;26.88;13.82;;;;;;;11.27;90.93;102322.31;5045893;28;20032;-79
2022/05/08 04:13:01;;;;;;;27.88;13.20;;;;;;;11.31;89.73;102320.28;5029035;28;20029;-78
2022/05/08 04:18:11;;;;;;;22.35;13.98;;;;;;;11.29;90.39;102327.38;5061960;28;20033;-79
2022/05/08 04:20:37;;;;;;;23.67;13.02;;;;;;;11.27;90.73;102329.28;5045320;28;20558;-78
2022/05/08 04:25:50;;;;;;;22.73;13.85;;;;;;;11.23;91.12;102328.72;5047409;28;20052;-79
2022/05/08 04:28:16;;;;;;;21.52;13.63;;;;;;;11.17;89.86;102330.97;5024726;28;20033;-79
2022/05/08 04:30:41;;;;;;;20.10;13.00;;;;;;;11.18;90.14;102333.44;5027895;28;20072;-79
2022/05/08 04:33:07;;;;;;;26.40;14.90;;;;;;;11.19;91.47;102329.06;5044751;28;20115;-79
2022/05/08 04:35:32;;;;;;;25.60;14.27;;;;;;;11.27;91.39;102329.28;5044256;28;20477;-79
2022/05/08 04:37:58;;;;;;;25.85;14.50;;;;;;;11.21;90.33;102332.38;5044905;28;20075;-78
2022/05/08 04:40:24;;;;;;;22.98;13.10;;;;;;;11.18;90.03;102336.03;5026714;28;20033;-79
2022/05/08 04:42:49;;;;;;;29.20;14.57;;;;;;;11.18;90.21;102330.84;5028526;28;20035;-79
2022/05/08 04:45:15;;;;;;;27.73;14.60;;;;;;;11.19;89.54;102332.50;5043898;28;20033;-79
2022/05/08 04:47:40;;;;;;;29.48;14.50;;;;;;;11.20;89.02;102338.50;5043463;28;20060;-79
2022/05/08 04:50:06;;;;;;;26.50;14.10;;;;;;;11.18;88.76;102341.22;5042428;28;20031;-77
2022/05/08 04:52:32;;;;;;;27.63;14.65;;;;;;;11.17;89.39;102346.53;5045710;28;20127;-78
2022/05/08 04:54:58;;;;;;;24.80;11.75;;;;;;;11.15;85.61;102351.03;5027284;28;20036;-79
2022/05/08 04:57:23;;;;;;;17.10;10.80;;;;;;;11.08;83.22;102346.31;5043304;28;20037;-78
2022/05/08 04:59:48;;;;;;;19.58;11.05;;;;;;;11.15;82.94;102351.88;5028091;28;20039;-79
2022/05/08 05:02:14;;;;;;;19.83;9.73;;;;;;;11.12;80.70;102359.06;5027914;28;20030;-79
2022/05/08 05:04:40;;;;;;;21.70;10.50;;;;;;;11.00;80.74;102353.91;5044981;28;20401;-78
2022/05/08 05:07:07;;;;;;;26.20;10.50;;;;;;;10.98;79.45;102362.75;5043424;28;20039;-77
2022/05/08 05:09:32;;;;;;;23.02;9.10;;;;;;;10.87;78.10;102363.59;5046127;28;20444;-79
2022/05/08 05:11:58;;;;;;;24.02;9.13;;;;;;;10.89;78.94;102372.91;5027627;28;20033;-77
2022/05/08 05:14:23;;;;;;;22.70;11.27;;;;;;;10.81;78.57;102371.84;5044917;28;20796;-78
2022/05/08 05:16:49;;;;;;;24.23;9.38;;;;;;;10.74;75.84;102373.25;5044769;28;20032;-78
2022/05/08 05:19:14;;;;;;;23.10;9.35;;;;;;;10.74;76.03;102368.91;5043462;28;20025;-76
2022/05/08 05:21:39;;;;;;;18.27;9.50;;;;;;;10.64;76.01;102373.16;5043651;28;20025;-79
2022/05/08 05:24:05;;;;;;;17.52;8.38;;;;;;;10.60;77.30;102375.16;5045621;28;20463;-79
2022/05/08 05:26:31;;;;;;;19.20;7.78;;;;;;;10.67;77.38;102376.34;5044475;28;20043;-78
2022/05/08 05:28:56;;;;;;;18.20;7.95;;;;;;;10.65;77.08;102380.81;5046769;28;20036;-79
2022/05/08 05:31:21;;;;;;;20.60;8.13;;;;;;;10.78;75.99;102382.47;5025410;28;20029;-77
2022/05/08 05:33:47;;;;;;;14.15;7.88;;;;;;;10.81;76.35;102384.81;5045048;28;20029;-78
2022/05/08 05:36:13;;;;;;;21.15;8.95;;;;;;;10.68;76.92;102393.56;5045833;28;20037;-78
2022/05/08 05:38:39;;;;;;;23.15;9.30;;;;;;;10.65;77.70;102388.59;5045850;28;20058;-79
2022/05/08 05:41:05;;;;;;;20.55;9.05;;;;;;;10.75;77.27;102390.50;5044205;28;20103;-78
2022/05/08 05:43:32;;;;;;;27.35;10.13;;;;;;;10.66;75.75;102394.59;5044076;28;20388;-78
2022/05/08 05:48:41;;;;;;;31.15;10.40;;;;;;;10.69;77.74;102407.34;5044511;28;20496;-78
2022/05/08 05:51:07;;;;;;;23.23;8.85;;;;;;;10.79;77.76;102400.50;5045985;28;20143;-78
2022/05/08 05:53:33;;;;;;;22.60;9.77;;;;;;;10.80;77.54;102399.56;5025008;28;20033;-78
2022/05/08 05:55:59;;;;;;;18.67;9.63;;;;;;;10.80;76.71;102409.13;5057883;28;20065;-78
2022/05/08 05:58:24;;;;;;;17.73;8.52;;;;;;;10.82;76.58;102404.66;5042358;28;20481;-78
2022/05/08 06:00:50;;;;;;;19.30;9.68;;;;;;;10.89;76.21;102404.06;5043675;28;20040;-77
2022/05/08 06:03:16;;;;;;;22.55;8.63;;;;;;;10.93;76.00;102414.22;5047405;28;20503;-76
2022/05/08 06:05:42;;;;;;;26.27;9.30;;;;;;;11.13;75.20;102410.03;5044238;28;20029;-77
2022/05/08 06:08:07;;;;;;;22.35;9.20;;;;;;;11.17;74.64;102406.25;5044883;28;20543;-78
2022/05/08 06:10:33;;;;;;;19.83;8.82;;;;;;;11.29;75.71;102407.88;5043377;28;20062;-79
2022/05/08 06:12:59;;;;;;;24.42;10.73;;;;;;;11.30;74.55;102406.94;5060893;28;20029;-78
2022/05/08 06:15:24;;;;;;;22.27;9.68;;;;;;;11.36;75.25;102410.81;5046426;28;20513;-78
2022/05/08 06:17:50;;;;;;;25.20;9.60;;;;;;;11.60;74.55;102406.28;5044158;28;20041;-78
2022/05/08 06:20:15;;;;;;;20.20;9.48;;;;;;;11.60;74.00;102410.63;5046164;28;20025;-79
2022/05/08 06:22:40;;;;;;;20.58;10.10;;;;;;;11.62;73.30;102406.13;5044259;28;20492;-78
2022/05/08 06:25:06;;;;;;;20.17;9.07;;;;;;;11.72;72.70;102411.44;5044428;28;20317;-79
2022/05/08 06:27:32;;;;;;;20.17;9.55;;;;;;;11.54;70.91;102417.13;5043998;28;20746;-79
2022/05/08 06:29:59;;;;;;;21.65;10.07;;;;;;;11.62;71.87;102422.56;5046257;28;20033;-78
2022/05/08 06:32:24;;;;;;;29.38;10.23;;;;;;;11.76;71.05;102423.22;5043485;28;20381;-79
2022/05/08 06:34:50;;;;;;;23.35;10.68;;;;;;;11.83;71.26;102426.97;5042673;28;20031;-78
2022/05/08 06:37:16;;;;;;;19.98;9.27;;;;;;;12.12;67.34;102434.19;5041346;28;20028;-78
2022/05/08 06:39:41;;;;;;;26.42;11.27;;;;;;;12.19;67.01;102438.75;5027316;28;20592;-77
2022/05/08 06:42:07;;;;;;;26.45;9.93;;;;;;;12.23;66.85;102440.16;5045225;28;20477;-79
2022/05/08 06:44:43;;;;;;;27.85;10.27;;;;;;;12.52;65.01;102434.28;5046398;28;20517;-78
2022/05/08 06:47:09;;;;;;;25.67;10.10;;;;;;;12.55;66.42;102441.84;5045629;28;20044;-78
2022/05/08 06:49:34;;;;;;;27.70;9.77;;;;;;;12.56;66.94;102430.47;5047332;28;20179;-79
2022/05/08 06:52:00;;;;;;;56.85;20.88;;;;;;;12.41;68.09;102430.00;5042356;28;20063;-79
2022/05/08 06:54:26;;;;;;;29.10;11.13;;;;;;;12.36;68.17;102439.16;5046942;28;20083;-79
2022/05/08 06:56:53;;;;;;;32.08;10.43;;;;;;;12.46;68.14;102432.22;5045724;28;20040;-78
2022/05/08 07:02:02;;;;;;;30.90;10.63;;;;;;;12.31;68.09;102443.91;5041376;28;20032;-79
2022/05/08 07:04:28;;;;;;;26.00;10.02;;;;;;;12.36;69.14;102446.97;5046206;28;20094;-79
2022/05/08 07:06:53;;;;;;;20.80;8.80;;;;;;;12.39;68.37;102450.09;5045217;28;20528;-79
2022/05/08 07:09:19;;;;;;;20.80;9.10;;;;;;;12.57;69.62;102452.94;5042714;28;20040;-78
2022/05/08 07:11:47;;;;;;;24.55;8.48;;;;;;;12.54;67.80;102445.38;5044347;28;20033;-78
2022/05/08 07:14:14;;;;;;;23.95;9.13;;;;;;;12.64;66.95;102453.28;5043325;28;20040;-78
2022/05/08 07:16:39;;;;;;;19.00;7.60;;;;;;;12.76;66.49;102454.81;5042439;28;20025;-77
2022/05/08 07:19:05;;;;;;;23.50;8.35;;;;;;;12.93;67.51;102449.97;5042417;28;20417;-80
2022/05/08 07:21:30;;;;;;;24.23;8.13;;;;;;;13.01;67.80;102458.75;5043835;28;20488;-77
2022/05/08 07:23:56;;;;;;;25.92;8.70;;;;;;;13.03;67.47;102456.03;5026233;28;20025;-78
2022/05/08 07:26:22;;;;;;;23.40;8.93;;;;;;;12.97;68.17;102456.56;5043366;28;20082;-80
2022/05/08 07:28:47;;;;;;;26.42;8.35;;;;;;;12.99;68.81;102454.66;5044806;28;20484;-80
2022/05/08 07:31:12;;;;;;;26.60;8.35;;;;;;;13.24;69.39;102450.72;5043007;28;20511;-77
2022/05/08 07:33:39;;;;;;;25.63;8.15;;;;;;;13.31;68.48;102454.50;5025008;28;20086;-78
2022/05/08 07:36:15;;;;;;;26.33;8.00;;;;;;;13.49;67.56;102462.50;5057731;28;20029;-79
2022/05/08 07:38:45;;;;;;;33.00;10.55;;;;;;;13.67;67.46;102461.81;5043661;28;20033;-77
2022/05/08 07:41:14;;;;;;;28.60;8.77;;;;;;;13.96;66.17;102459.22;5041011;28;20036;-77
2022/05/08 07:43:41;;;;;;;31.17;9.98;;;;;;;14.28;64.55;102466.75;5040714;28;20024;-79
2022/05/08 07:46:06;;;;;;;30.20;9.43;;;;;;;14.16;64.98;102470.47;5042037;28;20036;-77
2022/05/08 07:48:33;;;;;;;25.35;7.75;;;;;;;14.28;64.28;102473.72;5043339;28;20029;-78
2022/05/08 07:51:00;;;;;;;31.25;8.82;;;;;;;14.21;63.31;102470.88;5060717;28;20115;-77
2022/05/08 07:53:27;;;;;;;28.73;8.65;;;;;;;14.22;62.79;102477.72;5026877;28;20037;-80
2022/05/08 07:55:53;;;;;;;25.17;8.88;;;;;;;14.15;63.50;102480.06;5043948;28;20478;-77
2022/05/08 07:58:19;;;;;;;22.38;8.07;;;;;;;14.19;61.64;102470.19;5042181;28;20037;-78
2022/05/08 08:00:45;;;;;;;24.17;7.20;;;;;;;14.55;60.96;102471.22;5027734;28;20041;-78
2022/05/08 08:03:10;;;;;;;24.15;7.65;;;;;;;14.55;60.39;102479.03;5057112;28;20033;-78
2022/05/08 08:05:36;;;;;;;21.33;6.35;;;;;;;14.48;58.63;102484.97;5046074;28;20037;-77
2022/05/08 08:08:02;;;;;;;19.80;6.07;;;;;;;14.38;57.90;102477.16;5048745;28;20024;-77
2022/05/08 08:10:29;;;;;;;15.95;5.80;;;;;;;14.40;59.13;102483.88;5045543;28;20417;-77
2022/05/08 08:12:56;;;;;;;19.35;7.18;;;;;;;14.64;60.47;102484.44;5046684;28;20029;-78
2022/05/08 08:15:22;;;;;;;25.60;6.72;;;;;;;14.90;61.42;102495.88;5045013;28;20055;-77
2022/05/08 08:17:47;;;;;;;22.65;6.78;;;;;;;14.81;60.89;102494.13;5047133;28;20059;-78
2022/05/08 08:20:13;;;;;;;22.77;6.20;;;;;;;15.10;60.22;102498.41;5045050;28;20052;-80
2022/05/08 08:22:38;;;;;;;32.00;6.65;;;;;;;15.15;58.78;102499.59;5046939;28;20029;-77
2022/05/08 08:25:04;;;;;;;35.47;6.60;;;;;;;15.20;57.79;102499.19;5047494;28;20552;-80
2022/05/08 08:27:30;;;;;;;22.73;5.20;;;;;;;14.95;58.16;102504.09;5063336;28;20064;-77
2022/05/08 08:29:55;;;;;;;18.58;5.53;;;;;;;15.24;59.44;102504.91;5047480;28;20394;-78
2022/05/08 08:32:21;;;;;;;23.90;6.03;;;;;;;15.50;57.29;102503.28;5048698;28;20106;-78
2022/05/08 08:34:48;;;;;;;27.88;5.25;;;;;;;16.24;56.03;102495.31;5047761;28;20021;-77
2022/05/08 08:37:13;;;;;;;19.13;4.85;;;;;;;16.87;54.69;102496.84;5029777;28;20041;-79
2022/05/08 08:39:38;;;;;;;23.42;5.05;;;;;;;17.37;52.89;102490.03;5047836;28;20520;-77
2022/05/08 08:42:15;;;;;;;17.90;4.88;;;;;;;17.81;51.54;102493.19;5048403;28;20040;-80
2022/05/08 08:47:44;;;;;;;25.88;5.88;;;;;;;17.61;53.88;102500.56;5045507;28;20048;-77
2022/05/08 08:50:11;;;;;;;23.87;6.13;;;;;;;16.83;53.65;102500.78;5027302;28;20119;-78
2022/05/08 08:52:36;;;;;;;24.52;6.60;;;;;;;16.70;53.22;102501.16;5046004;28;20032;-80
2022/05/08 08:55:05;;;;;;;16.50;5.32;;;;;;;17.02;53.20;102500.53;5026175;28;20029;-78
2022/05/08 08:57:30;;;;;;;18.85;6.10;;;;;;;16.77;53.28;102499.56;5030066;28;20029;-79
2022/05/08 08:59:56;;;;;;;21.20;6.20;;;;;;;16.44;54.44;102506.41;5029982;28;20033;-78
2022/05/08 09:02:21;;;;;;;22.05;5.57;;;;;;;16.09;55.24;102506.31;5045686;28;20052;-78
2022/05/08 09:04:54;;;;;;;16.98;5.57;;;;;;;16.19;56.46;102506.22;5030272;28;20064;-79
2022/05/08 09:07:42;;;;;;;22.70;5.45;;;;;;;16.24;56.49;102511.84;5042289;28;20100;-79
2022/05/08 09:10:08;;;;;;;23.55;5.53;;;;;;;15.86;57.00;102500.72;5040291;28;20037;-78
2022/05/08 09:12:35;;;;;;;23.38;5.57;;;;;;;15.80;57.32;102516.19;5044405;28;20037;-77
2022/05/08 09:15:21;;;;;;;24.40;5.32;;;;;;;15.56;56.47;102507.91;5042640;28;20025;-77
2022/05/08 09:17:50;;;;;;;25.98;5.75;;;;;;;15.90;56.81;102504.69;5044362;28;20029;-77
2022/05/08 09:20:26;;;;;;;24.38;5.80;;;;;;;15.84;56.37;102514.91;5057525;28;20504;-78
2022/05/08 09:22:59;;;;;;;19.73;4.63;;;;;;;16.36;54.30;102512.41;5044159;28;20032;-79
2022/05/08 09:25:43;;;;;;;26.65;5.78;;;;;;;16.39;53.73;102503.41;5040288;28;20051;-76
2022/05/08 09:28:10;;;;;;;21.90;5.22;;;;;;;16.38;54.45;102502.59;5024077;28;20048;-79
2022/05/08 09:30:35;;;;;;;23.38;5.82;;;;;;;16.43;53.95;102497.72;5043358;28;20025;-77
2022/05/08 09:33:02;;;;;;;23.52;5.05;;;;;;;16.95;52.90;102498.69;5045282;28;20393;-77
2022/05/08 09:35:42;;;;;;;16.80;4.57;;;;;;;17.11;50.91;102496.16;5025029;28;20036;-78
2022/05/08 09:38:08;;;;;;;27.20;5.50;;;;;;;16.81;50.41;102505.31;5040989;28;20053;-77
2022/05/08 09:40:33;;;;;;;22.45;5.15;;;;;;;16.44;51.50;102491.50;5045384;28;20033;-77
2022/05/08 09:42:59;;;;;;;18.98;4.55;;;;;;;16.77;52.99;102496.13;5044654;28;20405;-77
2022/05/08 09:45:25;;;;;;;21.58;4.18;;;;;;;17.50;49.89;102501.69;5044639;28;20037;-78
2022/05/08 09:47:51;;;;;;;24.77;5.38;;;;;;;18.07;47.94;102485.19;5041127;28;20424;-80
2022/05/08 09:50:18;;;;;;;16.63;4.13;;;;;;;18.12;44.27;102491.75;5042251;28;20048;-77
2022/05/08 09:52:45;;;;;;;15.60;3.80;;;;;;;18.09;45.85;102479.78;5045667;28;20040;-78
2022/05/08 09:55:14;;;;;;;15.18;4.05;;;;;;;18.13;47.60;102480.28;5042784;28;20013;-77
2022/05/08 09:57:40;;;;;;;22.45;4.10;;;;;;;18.05;48.93;102479.28;5042119;28;20039;-77
2022/05/08 10:00:08;;;;;;;18.63;3.53;;;;;;;17.97;46.88;102481.09;5044721;28;20024;-79
2022/05/08 10:02:44;;;;;;;15.50;3.95;;;;;;;17.65;48.78;102482.66;5028305;28;20171;-78
2022/05/08 10:05:10;;;;;;;16.02;3.67;;;;;;;17.85;46.79;102483.22;5041590;28;20120;-78
2022/05/08 10:07:38;;;;;;;20.00;4.13;;;;;;;17.79;48.82;102481.22;5041896;28;20025;-79
2022/05/08 10:15:40;;;;;;;17.55;4.45;;;;;;;18.56;47.48;102480.84;5059609;28;20043;-78
2022/05/08 10:18:28;;;;;;;20.00;4.07;;;;;;;18.84;46.51;102476.84;5042478;28;20405;-79
2022/05/08 10:21:13;;;;;;;16.85;3.92;;;;;;;18.94;45.74;102478.47;5024351;28;20031;-78
2022/05/08 10:23:45;;;;;;;13.55;3.47;;;;;;;18.47;45.49;102478.22;5043800;28;20044;-77
2022/05/08 10:26:22;;;;;;;16.30;3.25;;;;;;;18.54;47.68;102470.53;5041464;28;20029;-79
2022/05/08 10:29:02;;;;;;;25.30;4.35;;;;;;;18.75;44.36;102477.84;5044681;28;20440;-81
2022/05/08 10:31:43;;;;;;;12.68;3.22;;;;;;;18.48;44.05;102473.81;5025640;28;20401;-78
2022/05/08 10:34:11;;;;;;;13.85;3.20;;;;;;;18.40;44.91;102476.44;5026072;28;20178;-82
2022/05/08 10:36:36;;;;;;;15.20;3.05;;;;;;;18.68;43.52;102474.25;5044740;28;20394;-79
2022/05/08 10:39:52;;;;;;;11.20;2.45;;;;;;;18.15;41.69;102470.44;5025220;28;20091;-77
2022/05/08 10:42:24;;;;;;;16.00;3.33;;;;;;;18.33;41.83;102473.69;5017031;28;20032;-78
2022/05/08 10:44:50;;;;;;;14.15;4.22;;;;;;;17.93;43.84;102466.66;5058335;28;20065;-79
2022/05/08 10:47:36;;;;;;;13.45;3.22;;;;;;;17.96;43.66;102469.78;5040201;28;20137;-78
2022/05/08 10:50:07;;;;;;;17.95;4.07;;;;;;;18.25;44.02;102460.56;5025257;28;20025;-79
2022/05/08 10:52:37;;;;;;;12.15;2.58;;;;;;;18.24;45.13;102459.75;5041886;28;20025;-77
2022/05/08 10:55:08;;;;;;;12.55;2.55;;;;;;;18.38;46.21;102454.78;5043939;28;20035;-79
2022/05/08 10:57:37;;;;;;;15.05;3.00;;;;;;;18.55;43.75;102460.81;5040943;28;20512;-80
2022/05/08 11:00:08;;;;;;;16.17;3.40;;;;;;;18.77;43.45;102459.28;5044411;28;20044;-78
2022/05/08 11:02:54;;;;;;;15.50;2.92;;;;;;;18.87;41.32;102454.66;5043938;28;20378;-78
2022/05/08 11:05:27;;;;;;;16.60;3.05;;;;;;;18.96;42.77;102455.44;5039177;28;20498;-78
2022/05/08 11:07:57;;;;;;;12.88;2.80;;;;;;;18.73;43.05;102453.53;5043929;28;20174;-78
2022/05/08 11:10:31;;;;;;;15.02;3.72;;;;;;;19.08;42.91;102446.22;5043846;28;20028;-78
2022/05/08 11:13:04;;;;;;;18.80;4.13;;;;;;;19.30;41.74;102449.03;5021267;28;20036;-79
2022/05/08 11:15:34;;;;;;;14.55;2.75;;;;;;;19.23;41.49;102447.09;5025310;28;20515;-77
2022/05/08 11:18:09;;;;;;;11.18;3.03;;;;;;;19.00;41.04;102448.84;5023328;28;20436;-79
2022/05/08 11:20:57;;;;;;;9.63;2.63;;;;;;;19.08;41.50;102445.38;5043666;28;20474;-80
2022/05/08 11:23:30;;;;;;;12.45;2.50;;;;;;;19.41;42.44;102440.72;5060456;28;20512;-79
2022/05/08 11:26:00;;;;;;;10.07;2.10;;;;;;;19.52;40.59;102429.81;5026166;28;20136;-80
2022/05/08 11:28:28;;;;;;;16.15;2.42;;;;;;;19.49;41.53;102443.28;5043160;28;20116;-79
2022/05/08 11:30:55;;;;;;;12.85;4.07;;;;;;;19.12;41.00;102434.34;5059422;28;20033;-78
2022/05/08 11:36:30;;;;;;;12.80;3.20;;;;;;;19.41;41.51;102435.47;5041031;28;20568;-78
2022/05/08 11:38:57;;;;;;;12.35;2.53;;;;;;;19.09;43.96;102432.06;5027699;28;20049;-79
2022/05/08 11:41:22;;;;;;;16.25;4.65;;;;;;;19.09;43.87;102436.50;5045704;28;20122;-79